Terminal Aerodrome Forecast
Issued by NWS

Home | Current Version | Previous Version | Graphics & Text | Print | Product List | Glossary On
Versions: 1 2 3 4 5 6 7 8 9 10 11 12 13 14 15 16 17 18 19
000
FTUS43 KABR 250530
TAFATY
TAF
KATY 250530Z 2506/2606 05009KT 5SM -RA BR OVC006
     FM251200 34008KT P6SM -SHRA OVC015
     FM252300 36010KT P6SM OVC025=

USA.gov is the U.S. government's official web portal to all federal, state and local government web resources and services.